sensor_id;sensor_type;location;lat;lon;timestamp;pressure;altitude;pressure_sealevel;temperature;humidity
64698;BME280;51124;53.394;-6.294;2024-03-08T00:00:39;100683.56;;;18.71;9.87
64698;BME280;51124;53.394;-6.294;2024-03-08T00:03:06;100682.45;;;16.72;9.69
64698;BME280;51124;53.394;-6.294;2024-03-08T00:05:39;100679.22;;;16.85;9.24
64698;BME280;51124;53.394;-6.294;2024-03-08T00:08:06;100677.13;;;16.33;8.94
64698;BME280;51124;53.394;-6.294;2024-03-08T00:10:34;100672.62;;;17.10;8.57
64698;BME280;51124;53.394;-6.294;2024-03-08T00:13:01;100673.72;;;17.32;8.49
64698;BME280;51124;53.394;-6.294;2024-03-08T00:15:29;100674.26;;;16.83;8.28
64698;BME280;51124;53.394;-6.294;2024-03-08T00:17:56;100676.67;;;17.05;8.11
64698;BME280;51124;53.394;-6.294;2024-03-08T00:20:23;100668.29;;;16.78;8.03
64698;BME280;51124;53.394;-6.294;2024-03-08T00:22:51;100669.84;;;16.82;7.99
64698;BME280;51124;53.394;-6.294;2024-03-08T00:25:18;100662.53;;;16.60;7.95
64698;BME280;51124;53.394;-6.294;2024-03-08T00:27:49;100665.47;;;16.75;7.89
64698;BME280;51124;53.394;-6.294;2024-03-08T00:30:16;100660.94;;;16.65;7.86
64698;BME280;51124;53.394;-6.294;2024-03-08T00:32:44;100657.88;;;16.84;7.74
64698;BME280;51124;53.394;-6.294;2024-03-08T00:35:11;100659.92;;;16.17;7.76
64698;BME280;51124;53.394;-6.294;2024-03-08T00:37:39;100660.22;;;16.24;7.76
64698;BME280;51124;53.394;-6.294;2024-03-08T00:40:07;100658.44;;;16.40;7.76
64698;BME280;51124;53.394;-6.294;2024-03-08T00:42:35;100649.54;;;17.10;7.57
64698;BME280;51124;53.394;-6.294;2024-03-08T00:45:02;100646.12;;;17.39;7.52
64698;BME280;51124;53.394;-6.294;2024-03-08T00:47:30;100652.34;;;16.89;7.66
64698;BME280;51124;53.394;-6.294;2024-03-08T00:49:57;100645.21;;;16.94;7.56
64698;BME280;51124;53.394;-6.294;2024-03-08T00:52:25;100639.19;;;17.03;7.59
64698;BME280;51124;53.394;-6.294;2024-03-08T00:54:52;100642.80;;;17.08;7.63
64698;BME280;51124;53.394;-6.294;2024-03-08T00:57:20;100639.54;;;17.33;7.50
64698;BME280;51124;53.394;-6.294;2024-03-08T00:59:47;100634.57;;;16.52;7.53
64698;BME280;51124;53.394;-6.294;2024-03-08T01:02:14;100627.79;;;16.16;7.55
64698;BME280;51124;53.394;-6.294;2024-03-08T01:04:42;100629.99;;;17.34;7.48
64698;BME280;51124;53.394;-6.294;2024-03-08T01:07:09;100628.03;;;17.39;7.48
64698;BME280;51124;53.394;-6.294;2024-03-08T01:09:36;100623.33;;;16.12;7.53
64698;BME280;51124;53.394;-6.294;2024-03-08T01:12:04;100618.33;;;17.39;7.49
64698;BME280;51124;53.394;-6.294;2024-03-08T01:14:31;100619.83;;;16.84;7.60
64698;BME280;51124;53.394;-6.294;2024-03-08T01:16:59;100613.82;;;16.55;7.49
64698;BME280;51124;53.394;-6.294;2024-03-08T01:19:26;100610.48;;;17.55;7.50
64698;BME280;51124;53.394;-6.294;2024-03-08T01:21:53;100612.75;;;16.94;7.64
64698;BME280;51124;53.394;-6.294;2024-03-08T01:24:21;100609.74;;;17.37;7.50
64698;BME280;51124;53.394;-6.294;2024-03-08T01:26:49;100611.59;;;16.49;7.56
64698;BME280;51124;53.394;-6.294;2024-03-08T01:29:16;100597.48;;;18.05;7.45
64698;BME280;51124;53.394;-6.294;2024-03-08T01:31:43;100605.65;;;17.68;7.52
64698;BME280;51124;53.394;-6.294;2024-03-08T01:34:11;100606.77;;;16.01;7.58
64698;BME280;51124;53.394;-6.294;2024-03-08T01:36:38;100608.54;;;15.91;7.64
64698;BME280;51124;53.394;-6.294;2024-03-08T01:39:06;100604.43;;;17.46;7.51
64698;BME280;51124;53.394;-6.294;2024-03-08T01:41:33;100606.29;;;16.23;7.53
64698;BME280;51124;53.394;-6.294;2024-03-08T01:44:02;100607.79;;;17.56;7.55
64698;BME280;51124;53.394;-6.294;2024-03-08T01:46:29;100608.29;;;17.02;7.58
64698;BME280;51124;53.394;-6.294;2024-03-08T01:48:57;100606.47;;;16.51;7.60
64698;BME280;51124;53.394;-6.294;2024-03-08T01:51:25;100605.12;;;16.52;7.47
64698;BME280;51124;53.394;-6.294;2024-03-08T01:53:53;100601.58;;;17.29;7.41
64698;BME280;51124;53.394;-6.294;2024-03-08T01:56:20;100597.14;;;17.15;7.44
64698;BME280;51124;53.394;-6.294;2024-03-08T01:58:47;100588.79;;;17.31;7.41
64698;BME280;51124;53.394;-6.294;2024-03-08T02:01:15;100585.30;;;19.88;7.83
64698;BME280;51124;53.394;-6.294;2024-03-08T02:03:43;100586.86;;;18.93;8.05
64698;BME280;51124;53.394;-6.294;2024-03-08T02:06:11;100581.27;;;17.33;8.16
64698;BME280;51124;53.394;-6.294;2024-03-08T02:08:39;100573.60;;;20.40;8.23
64698;BME280;51124;53.394;-6.294;2024-03-08T02:11:07;100575.37;;;19.40;8.91
64698;BME280;51124;53.394;-6.294;2024-03-08T02:13:34;100574.56;;;19.86;9.08
64698;BME280;51124;53.394;-6.294;2024-03-08T02:16:03;100574.00;;;19.92;9.27
64698;BME280;51124;53.394;-6.294;2024-03-08T02:18:31;100564.90;;;19.34;9.41
64698;BME280;51124;53.394;-6.294;2024-03-08T02:21:00;100563.54;;;19.00;9.61
64698;BME280;51124;53.394;-6.294;2024-03-08T02:23:29;100557.66;;;19.23;9.65
64698;BME280;51124;53.394;-6.294;2024-03-08T02:25:58;100551.76;;;19.29;9.70
64698;BME280;51124;53.394;-6.294;2024-03-08T02:28:26;100549.75;;;19.19;9.75
64698;BME280;51124;53.394;-6.294;2024-03-08T02:30:54;100548.90;;;18.98;9.81
64698;BME280;51124;53.394;-6.294;2024-03-08T02:33:22;100547.87;;;19.51;9.81
64698;BME280;51124;53.394;-6.294;2024-03-08T02:35:51;100545.71;;;18.91;9.80
64698;BME280;51124;53.394;-6.294;2024-03-08T02:38:29;100545.12;;;19.21;9.76
64698;BME280;51124;53.394;-6.294;2024-03-08T02:40:56;100541.55;;;18.65;9.83
64698;BME280;51124;53.394;-6.294;2024-03-08T02:43:24;100537.26;;;19.41;9.85
64698;BME280;51124;53.394;-6.294;2024-03-08T02:45:52;100531.46;;;18.71;9.82
64698;BME280;51124;53.394;-6.294;2024-03-08T02:48:20;100524.63;;;19.13;9.80
64698;BME280;51124;53.394;-6.294;2024-03-08T02:50:48;100511.51;;;18.44;9.88
64698;BME280;51124;53.394;-6.294;2024-03-08T02:53:16;100510.05;;;18.79;9.82
64698;BME280;51124;53.394;-6.294;2024-03-08T02:55:44;100508.24;;;19.32;9.85
64698;BME280;51124;53.394;-6.294;2024-03-08T02:58:12;100500.91;;;18.00;9.92
64698;BME280;51124;53.394;-6.294;2024-03-08T03:00:40;100492.77;;;16.63;9.63
64698;BME280;51124;53.394;-6.294;2024-03-08T03:03:08;100483.52;;;16.35;9.19
64698;BME280;51124;53.394;-6.294;2024-03-08T03:05:35;100476.16;;;15.88;8.82
64698;BME280;51124;53.394;-6.294;2024-03-08T03:08:03;100472.69;;;16.43;8.67
64698;BME280;51124;53.394;-6.294;2024-03-08T03:10:30;100468.57;;;16.45;8.50
64698;BME280;51124;53.394;-6.294;2024-03-08T03:12:57;100464.42;;;16.31;8.36
64698;BME280;51124;53.394;-6.294;2024-03-08T03:15:25;100458.30;;;16.35;8.28
64698;BME280;51124;53.394;-6.294;2024-03-08T03:17:52;100448.03;;;16.55;8.06
64698;BME280;51124;53.394;-6.294;2024-03-08T03:20:20;100446.66;;;16.28;7.91
64698;BME280;51124;53.394;-6.294;2024-03-08T03:22:47;100439.95;;;15.93;7.92
64698;BME280;51124;53.394;-6.294;2024-03-08T03:25:15;100436.89;;;16.52;7.70
64698;BME280;51124;53.394;-6.294;2024-03-08T03:27:42;100433.47;;;15.93;7.72
64698;BME280;51124;53.394;-6.294;2024-03-08T03:30:10;100430.72;;;16.61;7.70
64698;BME280;51124;53.394;-6.294;2024-03-08T03:32:38;100428.61;;;16.90;7.55
64698;BME280;51124;53.394;-6.294;2024-03-08T03:35:06;100423.84;;;16.40;7.64
64698;BME280;51124;53.394;-6.294;2024-03-08T03:37:33;100424.24;;;16.65;7.51
64698;BME280;51124;53.394;-6.294;2024-03-08T03:40:01;100422.40;;;16.34;7.47
64698;BME280;51124;53.394;-6.294;2024-03-08T03:42:28;100419.67;;;16.60;7.63
64698;BME280;51124;53.394;-6.294;2024-03-08T03:44:56;100416.78;;;16.99;7.55
64698;BME280;51124;53.394;-6.294;2024-03-08T03:47:23;100418.72;;;17.13;7.49
64698;BME280;51124;53.394;-6.294;2024-03-08T03:49:50;100413.97;;;16.38;7.57
64698;BME280;51124;53.394;-6.294;2024-03-08T03:52:18;100407.54;;;16.08;7.54
64698;BME280;51124;53.394;-6.294;2024-03-08T03:54:45;100406.25;;;16.51;7.45
64698;BME280;51124;53.394;-6.294;2024-03-08T03:57:12;100406.74;;;16.36;7.63
64698;BME280;51124;53.394;-6.294;2024-03-08T03:59:40;100403.31;;;17.11;7.49
64698;BME280;51124;53.394;-6.294;2024-03-08T04:02:07;100403.20;;;16.44;7.61
64698;BME280;51124;53.394;-6.294;2024-03-08T04:04:35;100398.88;;;16.37;7.55
64698;BME280;51124;53.394;-6.294;2024-03-08T04:07:02;100389.05;;;16.18;7.48
64698;BME280;51124;53.394;-6.294;2024-03-08T04:09:30;100387.45;;;16.83;7.49
64698;BME280;51124;53.394;-6.294;2024-03-08T04:11:57;100388.84;;;16.41;7.54
64698;BME280;51124;53.394;-6.294;2024-03-08T04:14:25;100386.29;;;15.44;7.54
64698;BME280;51124;53.394;-6.294;2024-03-08T04:16:52;100377.70;;;16.20;7.52
64698;BME280;51124;53.394;-6.294;2024-03-08T04:19:19;100374.37;;;16.50;7.51
64698;BME280;51124;53.394;-6.294;2024-03-08T04:21:47;100373.74;;;17.00;7.42
64698;BME280;51124;53.394;-6.294;2024-03-08T04:24:14;100380.31;;;16.31;7.49
64698;BME280;51124;53.394;-6.294;2024-03-08T04:26:42;100379.24;;;17.04;7.56
64698;BME280;51124;53.394;-6.294;2024-03-08T04:29:09;100375.55;;;16.76;7.55
64698;BME280;51124;53.394;-6.294;2024-03-08T04:31:36;100373.88;;;16.22;7.52
64698;BME280;51124;53.394;-6.294;2024-03-08T04:34:04;100374.56;;;15.77;7.52
64698;BME280;51124;53.394;-6.294;2024-03-08T04:36:31;100376.10;;;16.72;7.49
64698;BME280;51124;53.394;-6.294;2024-03-08T04:38:58;100367.70;;;16.65;7.43
64698;BME280;51124;53.394;-6.294;2024-03-08T04:41:26;100367.15;;;16.27;7.51
64698;BME280;51124;53.394;-6.294;2024-03-08T04:43:53;100359.88;;;17.06;7.52
64698;BME280;51124;53.394;-6.294;2024-03-08T04:46:20;100356.40;;;16.26;7.50
64698;BME280;51124;53.394;-6.294;2024-03-08T04:48:48;100352.87;;;16.22;7.53
64698;BME280;51124;53.394;-6.294;2024-03-08T04:51:15;100353.01;;;16.10;7.47
64698;BME280;51124;53.394;-6.294;2024-03-08T04:53:43;100355.18;;;16.18;7.56
64698;BME280;51124;53.394;-6.294;2024-03-08T04:56:10;100347.15;;;17.55;7.45
64698;BME280;51124;53.394;-6.294;2024-03-08T04:58:38;100350.75;;;18.77;7.94
64698;BME280;51124;53.394;-6.294;2024-03-08T05:01:05;100345.75;;;17.00;7.99
64698;BME280;51124;53.394;-6.294;2024-03-08T05:03:33;100348.90;;;16.56;8.10
64698;BME280;51124;53.394;-6.294;2024-03-08T05:06:01;100346.42;;;20.72;8.33
64698;BME280;51124;53.394;-6.294;2024-03-08T05:08:28;100345.83;;;20.11;8.77
64698;BME280;51124;53.394;-6.294;2024-03-08T05:10:56;100341.57;;;18.47;9.07
64698;BME280;51124;53.394;-6.294;2024-03-08T05:13:24;100342.47;;;18.85;9.21
64698;BME280;51124;53.394;-6.294;2024-03-08T05:15:52;100335.55;;;18.49;9.36
64698;BME280;51124;53.394;-6.294;2024-03-08T05:18:20;100335.36;;;18.44;9.52
64698;BME280;51124;53.394;-6.294;2024-03-08T05:20:47;100334.20;;;18.31;9.64
64698;BME280;51124;53.394;-6.294;2024-03-08T05:23:15;100329.96;;;19.50;9.48
64698;BME280;51124;53.394;-6.294;2024-03-08T05:25:43;100325.75;;;19.11;9.64
64698;BME280;51124;53.394;-6.294;2024-03-08T05:28:11;100323.54;;;17.98;9.84
64698;BME280;51124;53.394;-6.294;2024-03-08T05:30:40;100320.82;;;18.13;9.78
64698;BME280;51124;53.394;-6.294;2024-03-08T05:33:08;100318.07;;;18.85;9.78
64698;BME280;51124;53.394;-6.294;2024-03-08T05:35:35;100315.62;;;18.65;9.74
64698;BME280;51124;53.394;-6.294;2024-03-08T05:38:03;100320.22;;;17.99;9.79
64698;BME280;51124;53.394;-6.294;2024-03-08T05:40:31;100316.34;;;17.77;9.87
64698;BME280;51124;53.394;-6.294;2024-03-08T05:42:59;100304.64;;;18.62;9.87
64698;BME280;51124;53.394;-6.294;2024-03-08T05:45:27;100299.99;;;18.60;9.80
64698;BME280;51124;53.394;-6.294;2024-03-08T05:47:54;100300.94;;;18.83;9.85
64698;BME280;51124;53.394;-6.294;2024-03-08T05:50:22;100294.43;;;18.04;9.97
64698;BME280;51124;53.394;-6.294;2024-03-08T05:52:50;100289.60;;;18.08;9.88
64698;BME280;51124;53.394;-6.294;2024-03-08T05:55:18;100290.41;;;17.37;9.81
64698;BME280;51124;53.394;-6.294;2024-03-08T05:57:45;100293.92;;;15.80;9.45
64698;BME280;51124;53.394;-6.294;2024-03-08T06:00:13;100286.94;;;16.18;9.11
64698;BME280;51124;53.394;-6.294;2024-03-08T06:02:41;100281.53;;;15.99;8.81
64698;BME280;51124;53.394;-6.294;2024-03-08T06:05:10;100279.93;;;16.34;8.65
64698;BME280;51124;53.394;-6.294;2024-03-08T06:07:38;100279.69;;;15.76;8.45
64698;BME280;51124;53.394;-6.294;2024-03-08T06:10:06;100274.52;;;15.14;8.41
64698;BME280;51124;53.394;-6.294;2024-03-08T06:12:34;100270.66;;;16.02;8.10
64698;BME280;51124;53.394;-6.294;2024-03-08T06:15:01;100266.37;;;15.87;8.01
64698;BME280;51124;53.394;-6.294;2024-03-08T06:17:29;100269.64;;;15.49;7.93
64698;BME280;51124;53.394;-6.294;2024-03-08T06:19:56;100263.71;;;16.54;7.82
64698;BME280;51124;53.394;-6.294;2024-03-08T06:22:23;100258.59;;;16.08;7.91
64698;BME280;51124;53.394;-6.294;2024-03-08T06:24:51;100259.35;;;15.82;7.86
64698;BME280;51124;53.394;-6.294;2024-03-08T06:27:19;100257.82;;;16.10;7.75
64698;BME280;51124;53.394;-6.294;2024-03-08T06:29:46;100256.53;;;15.86;7.72
64698;BME280;51124;53.394;-6.294;2024-03-08T06:32:13;100253.75;;;15.46;7.71
64698;BME280;51124;53.394;-6.294;2024-03-08T06:34:41;100252.22;;;15.12;7.75
64698;BME280;51124;53.394;-6.294;2024-03-08T06:37:08;100249.90;;;16.77;7.60
64698;BME280;51124;53.394;-6.294;2024-03-08T06:39:36;100252.10;;;16.15;7.66
64698;BME280;51124;53.394;-6.294;2024-03-08T06:42:03;100248.67;;;15.71;7.64
64698;BME280;51124;53.394;-6.294;2024-03-08T06:44:31;100253.37;;;16.30;7.61
64698;BME280;51124;53.394;-6.294;2024-03-08T06:46:58;100252.60;;;16.51;7.55
64698;BME280;51124;53.394;-6.294;2024-03-08T06:49:26;100249.11;;;16.38;7.71
64698;BME280;51124;53.394;-6.294;2024-03-08T06:51:53;100246.06;;;15.68;7.71
64698;BME280;51124;53.394;-6.294;2024-03-08T06:54:20;100247.55;;;15.41;7.69
64698;BME280;51124;53.394;-6.294;2024-03-08T06:56:48;100247.73;;;15.61;7.66
64698;BME280;51124;53.394;-6.294;2024-03-08T06:59:15;100245.50;;;15.65;7.64
64698;BME280;51124;53.394;-6.294;2024-03-08T07:01:42;100240.38;;;16.07;7.60
64698;BME280;51124;53.394;-6.294;2024-03-08T07:04:10;100237.00;;;15.89;7.54
64698;BME280;51124;53.394;-6.294;2024-03-08T07:06:38;100234.82;;;16.17;7.58
64698;BME280;51124;53.394;-6.294;2024-03-08T07:09:05;100233.51;;;15.93;7.58
64698;BME280;51124;53.394;-6.294;2024-03-08T07:11:32;100232.15;;;15.64;7.68
64698;BME280;51124;53.394;-6.294;2024-03-08T07:14:00;100233.77;;;15.31;7.67
64698;BME280;51124;53.394;-6.294;2024-03-08T07:16:27;100236.61;;;15.76;7.54
64698;BME280;51124;53.394;-6.294;2024-03-08T07:18:55;100242.61;;;16.27;7.54
64698;BME280;51124;53.394;-6.294;2024-03-08T07:21:22;100239.17;;;16.08;7.47
64698;BME280;51124;53.394;-6.294;2024-03-08T07:23:49;100234.43;;;15.90;7.60
64698;BME280;51124;53.394;-6.294;2024-03-08T07:26:17;100230.10;;;15.79;7.75
64698;BME280;51124;53.394;-6.294;2024-03-08T07:28:44;100229.21;;;16.05;7.64
64698;BME280;51124;53.394;-6.294;2024-03-08T07:31:12;100225.04;;;15.30;7.59
64698;BME280;51124;53.394;-6.294;2024-03-08T07:33:39;100224.31;;;16.16;7.55
64698;BME280;51124;53.394;-6.294;2024-03-08T07:36:07;100224.07;;;15.15;7.74
64698;BME280;51124;53.394;-6.294;2024-03-08T07:38:34;100223.72;;;16.03;7.78
64698;BME280;51124;53.394;-6.294;2024-03-08T07:41:02;100226.23;;;15.11;7.89
64698;BME280;51124;53.394;-6.294;2024-03-08T07:43:29;100230.93;;;14.58;7.95
64698;BME280;51124;53.394;-6.294;2024-03-08T07:45:57;100226.99;;;14.81;7.92
64698;BME280;51124;53.394;-6.294;2024-03-08T07:48:24;100225.57;;;15.23;7.75
64698;BME280;51124;53.394;-6.294;2024-03-08T07:50:51;100219.40;;;15.75;7.66
64698;BME280;51124;53.394;-6.294;2024-03-08T07:53:19;100222.63;;;16.01;7.80
64698;BME280;51124;53.394;-6.294;2024-03-08T07:55:46;100227.58;;;18.24;8.01
64698;BME280;51124;53.394;-6.294;2024-03-08T07:58:14;100227.03;;;17.43;8.28
64698;BME280;51124;53.394;-6.294;2024-03-08T08:00:41;100221.29;;;16.69;8.22
64698;BME280;51124;53.394;-6.294;2024-03-08T08:03:09;100223.19;;;19.69;8.41
64698;BME280;51124;53.394;-6.294;2024-03-08T08:05:37;100217.56;;;19.63;8.77
64698;BME280;51124;53.394;-6.294;2024-03-08T08:08:07;100220.76;;;18.71;9.11
64698;BME280;51124;53.394;-6.294;2024-03-08T08:10:35;100218.92;;;19.20;9.19
64698;BME280;51124;53.394;-6.294;2024-03-08T08:13:03;100219.35;;;18.84;9.41
64698;BME280;51124;53.394;-6.294;2024-03-08T08:15:31;100216.06;;;19.25;9.42
64698;BME280;51124;53.394;-6.294;2024-03-08T08:17:59;100211.13;;;18.56;9.50
64698;BME280;51124;53.394;-6.294;2024-03-08T08:20:27;100207.68;;;19.15;9.54
64698;BME280;51124;53.394;-6.294;2024-03-08T08:22:55;100210.01;;;18.66;9.52
64698;BME280;51124;53.394;-6.294;2024-03-08T08:25:23;100202.67;;;18.70;9.61
64698;BME280;51124;53.394;-6.294;2024-03-08T08:27:51;100200.82;;;19.10;9.62
64698;BME280;51124;53.394;-6.294;2024-03-08T08:30:19;100200.12;;;18.13;9.73
64698;BME280;51124;53.394;-6.294;2024-03-08T08:32:47;100197.15;;;18.72;9.71
64698;BME280;51124;53.394;-6.294;2024-03-08T08:35:15;100198.49;;;18.66;9.94
64698;BME280;51124;53.394;-6.294;2024-03-08T08:37:43;100200.03;;;18.94;9.99
64698;BME280;51124;53.394;-6.294;2024-03-08T08:40:11;100195.40;;;19.04;9.81
64698;BME280;51124;53.394;-6.294;2024-03-08T08:42:39;100186.00;;;19.19;9.81
64698;BME280;51124;53.394;-6.294;2024-03-08T08:45:08;100190.92;;;19.18;9.73
64698;BME280;51124;53.394;-6.294;2024-03-08T08:47:36;100187.06;;;19.30;9.75
64698;BME280;51124;53.394;-6.294;2024-03-08T08:50:05;100180.12;;;18.49;9.92
64698;BME280;51124;53.394;-6.294;2024-03-08T08:52:32;100183.82;;;17.96;10.23
64698;BME280;51124;53.394;-6.294;2024-03-08T08:55:00;100183.35;;;17.43;10.36
64698;BME280;51124;53.394;-6.294;2024-03-08T08:57:27;100177.07;;;15.82;9.81
64698;BME280;51124;53.394;-6.294;2024-03-08T08:59:55;100170.03;;;16.64;8.90
64698;BME280;51124;53.394;-6.294;2024-03-08T09:02:23;100164.62;;;17.77;8.58
64698;BME280;51124;53.394;-6.294;2024-03-08T09:04:50;100160.21;;;17.37;8.50
64698;BME280;51124;53.394;-6.294;2024-03-08T09:07:18;100156.93;;;16.66;8.37
64698;BME280;51124;53.394;-6.294;2024-03-08T09:09:45;100153.84;;;17.28;8.12
64698;BME280;51124;53.394;-6.294;2024-03-08T09:12:13;100149.32;;;17.65;7.91
64698;BME280;51124;53.394;-6.294;2024-03-08T09:14:40;100145.22;;;17.38;7.88
64698;BME280;51124;53.394;-6.294;2024-03-08T09:17:07;100143.50;;;16.99;7.82
64698;BME280;51124;53.394;-6.294;2024-03-08T09:19:35;100141.38;;;17.63;7.71
64698;BME280;51124;53.394;-6.294;2024-03-08T09:22:02;100139.71;;;17.54;7.77
64698;BME280;51124;53.394;-6.294;2024-03-08T09:24:30;100136.31;;;17.84;7.62
64698;BME280;51124;53.394;-6.294;2024-03-08T09:26:57;100138.38;;;17.60;7.61
64698;BME280;51124;53.394;-6.294;2024-03-08T09:29:25;100136.02;;;17.46;7.52
64698;BME280;51124;53.394;-6.294;2024-03-08T09:31:52;100136.64;;;17.12;7.43
64698;BME280;51124;53.394;-6.294;2024-03-08T09:34:20;100131.13;;;17.45;7.49
64698;BME280;51124;53.394;-6.294;2024-03-08T09:36:47;100133.31;;;17.54;7.53
64698;BME280;51124;53.394;-6.294;2024-03-08T09:39:15;100123.34;;;18.31;7.34
64698;BME280;51124;53.394;-6.294;2024-03-08T09:41:42;100122.06;;;17.07;7.39
64698;BME280;51124;53.394;-6.294;2024-03-08T09:44:10;100122.61;;;17.49;7.45
64698;BME280;51124;53.394;-6.294;2024-03-08T09:46:37;100121.07;;;17.43;7.41
64698;BME280;51124;53.394;-6.294;2024-03-08T09:49:06;100115.59;;;17.63;7.41
64698;BME280;51124;53.394;-6.294;2024-03-08T09:51:35;100112.08;;;18.27;7.34
64698;BME280;51124;53.394;-6.294;2024-03-08T09:54:03;100111.12;;;17.95;7.22
64698;BME280;51124;53.394;-6.294;2024-03-08T09:56:31;100102.34;;;17.60;7.32
64698;BME280;51124;53.394;-6.294;2024-03-08T09:58:59;100095.34;;;17.78;7.23
64698;BME280;51124;53.394;-6.294;2024-03-08T10:01:26;100093.93;;;18.04;7.20
64698;BME280;51124;53.394;-6.294;2024-03-08T10:03:54;100097.83;;;17.26;7.28
64698;BME280;51124;53.394;-6.294;2024-03-08T10:06:24;100087.84;;;18.16;7.16
64698;BME280;51124;53.394;-6.294;2024-03-08T10:08:52;100084.83;;;17.75;7.20
64698;BME280;51124;53.394;-6.294;2024-03-08T10:11:19;100077.23;;;18.06;7.20
64698;BME280;51124;53.394;-6.294;2024-03-08T10:13:47;100076.61;;;18.49;7.06
64698;BME280;51124;53.394;-6.294;2024-03-08T10:16:15;100071.30;;;18.27;7.10
64698;BME280;51124;53.394;-6.294;2024-03-08T10:18:42;100065.66;;;18.03;7.14
64698;BME280;51124;53.394;-6.294;2024-03-08T10:21:13;100065.25;;;17.39;7.08
64698;BME280;51124;53.394;-6.294;2024-03-08T10:23:41;100062.78;;;17.62;7.17
64698;BME280;51124;53.394;-6.294;2024-03-08T10:26:12;100061.87;;;17.09;7.28
64698;BME280;51124;53.394;-6.294;2024-03-08T10:28:41;100061.85;;;18.68;7.05
64698;BME280;51124;53.394;-6.294;2024-03-08T10:31:08;100055.10;;;18.03;6.94
64698;BME280;51124;53.394;-6.294;2024-03-08T10:33:35;100055.36;;;18.52;7.02
64698;BME280;51124;53.394;-6.294;2024-03-08T10:36:03;100051.20;;;17.99;7.29
64698;BME280;51124;53.394;-6.294;2024-03-08T10:38:33;100051.06;;;18.79;7.46
64698;BME280;51124;53.394;-6.294;2024-03-08T10:41:03;100049.32;;;18.57;7.55
64698;BME280;51124;53.394;-6.294;2024-03-08T10:43:37;100046.99;;;18.69;7.19
64698;BME280;51124;53.394;-6.294;2024-03-08T10:46:06;100049.14;;;18.68;7.28
64698;BME280;51124;53.394;-6.294;2024-03-08T10:48:30;100048.95;;;18.57;7.27
64698;BME280;51124;53.394;-6.294;2024-03-08T10:50:59;100046.85;;;18.75;7.28
64698;BME280;51124;53.394;-6.294;2024-03-08T10:53:29;100045.16;;;21.28;7.25
64698;BME280;51124;53.394;-6.294;2024-03-08T10:55:58;100048.33;;;21.08;7.70
64698;BME280;51124;53.394;-6.294;2024-03-08T10:58:27;100048.05;;;20.18;7.88
64698;BME280;51124;53.394;-6.294;2024-03-08T11:00:55;100049.99;;;19.37;7.78
64698;BME280;51124;53.394;-6.294;2024-03-08T11:03:55;100045.29;;;22.62;8.07
64698;BME280;51124;53.394;-6.294;2024-03-08T11:05:52;100050.10;;;21.90;8.48
64698;BME280;51124;53.394;-6.294;2024-03-08T11:08:20;100048.82;;;21.71;8.83
64698;BME280;51124;53.394;-6.294;2024-03-08T11:10:49;100054.04;;;21.94;8.97
64698;BME280;51124;53.394;-6.294;2024-03-08T11:13:35;100051.02;;;21.08;9.10
64698;BME280;51124;53.394;-6.294;2024-03-08T11:15:44;100048.87;;;21.18;9.17
64698;BME280;51124;53.394;-6.294;2024-03-08T11:18:11;100048.34;;;21.16;9.23
64698;BME280;51124;53.394;-6.294;2024-03-08T11:20:40;100044.70;;;21.15;9.30
64698;BME280;51124;53.394;-6.294;2024-03-08T11:23:08;100038.06;;;21.06;9.19
64698;BME280;51124;53.394;-6.294;2024-03-08T11:25:38;100039.87;;;20.74;9.31
64698;BME280;51124;53.394;-6.294;2024-03-08T11:28:12;100032.48;;;20.80;9.30
64698;BME280;51124;53.394;-6.294;2024-03-08T11:30:40;100028.87;;;21.60;9.23
64698;BME280;51124;53.394;-6.294;2024-03-08T11:33:13;100029.46;;;21.54;9.16
64698;BME280;51124;53.394;-6.294;2024-03-08T11:35:41;100024.14;;;21.07;9.24
64698;BME280;51124;53.394;-6.294;2024-03-08T11:38:10;100022.22;;;21.68;9.24
64698;BME280;51124;53.394;-6.294;2024-03-08T11:40:38;100022.58;;;21.37;9.21
64698;BME280;51124;53.394;-6.294;2024-03-08T11:43:06;100019.92;;;21.13;9.18
64698;BME280;51124;53.394;-6.294;2024-03-08T11:45:34;100016.25;;;21.35;9.28
64698;BME280;51124;53.394;-6.294;2024-03-08T11:48:03;100016.06;;;21.25;9.26
64698;BME280;51124;53.394;-6.294;2024-03-08T11:50:31;100019.15;;;21.69;9.02
64698;BME280;51124;53.394;-6.294;2024-03-08T11:53:03;100022.41;;;19.87;9.05
64698;BME280;51124;53.394;-6.294;2024-03-08T11:55:30;100015.18;;;18.43;8.57
64698;BME280;51124;53.394;-6.294;2024-03-08T11:58:06;100011.68;;;18.68;8.24
64698;BME280;51124;53.394;-6.294;2024-03-08T12:00:23;100014.44;;;18.57;7.97
64698;BME280;51124;53.394;-6.294;2024-03-08T12:03:03;100009.67;;;19.24;7.77
64698;BME280;51124;53.394;-6.294;2024-03-08T12:05:21;100012.95;;;18.70;7.74
64698;BME280;51124;53.394;-6.294;2024-03-08T12:07:57;100014.03;;;17.88;7.52
64698;BME280;51124;53.394;-6.294;2024-03-08T12:10:17;100009.61;;;19.12;7.24
64698;BME280;51124;53.394;-6.294;2024-03-08T12:12:45;100004.09;;;18.28;7.18
64698;BME280;51124;53.394;-6.294;2024-03-08T12:15:14;100003.10;;;18.30;7.12
64698;BME280;51124;53.394;-6.294;2024-03-08T12:17:42;99995.82;;;18.50;7.01
64698;BME280;51124;53.394;-6.294;2024-03-08T12:20:15;99995.12;;;18.54;7.36
64698;BME280;51124;53.394;-6.294;2024-03-08T12:22:43;99988.95;;;18.52;7.68
64698;BME280;51124;53.394;-6.294;2024-03-08T12:25:12;99984.81;;;18.11;7.67
64698;BME280;51124;53.394;-6.294;2024-03-08T12:27:41;99983.87;;;17.74;7.40
64698;BME280;51124;53.394;-6.294;2024-03-08T12:30:26;99978.71;;;17.77;7.40
64698;BME280;51124;53.394;-6.294;2024-03-08T12:32:50;99967.80;;;18.54;7.13
64698;BME280;51124;53.394;-6.294;2024-03-08T12:35:18;99962.96;;;19.34;6.91
64698;BME280;51124;53.394;-6.294;2024-03-08T12:37:45;99958.36;;;18.38;6.95
64698;BME280;51124;53.394;-6.294;2024-03-08T12:40:13;99954.33;;;18.90;6.91
64698;BME280;51124;53.394;-6.294;2024-03-08T12:42:40;99952.81;;;18.11;6.81
64698;BME280;51124;53.394;-6.294;2024-03-08T12:45:08;99950.06;;;19.13;6.70
64698;BME280;51124;53.394;-6.294;2024-03-08T12:47:36;99949.46;;;18.28;6.75
64698;BME280;51124;53.394;-6.294;2024-03-08T12:50:03;99943.71;;;18.62;6.71
64698;BME280;51124;53.394;-6.294;2024-03-08T12:52:31;99944.81;;;19.24;6.59